Time;durP1;ratioP1;P1;durP2;ratioP2;P2;SDS_P1;SDS_P2;PMS_P1;PMS_P2;Temp;Humidity;BMP_temperature;BMP_pressure;BME280_temperature;BME280_humidity;BME280_pressure;Samples;Min_cycle;Max_cycle;Signal;HPM_P1;HPM_P2
2021/08/11 00:02:19;;;;;;;22.87;10.27;;;;;;;13.44;100.00;101315.34;5028911;28;20712;-70
2021/08/11 00:04:44;;;;;;;17.23;9.70;;;;;;;13.42;100.00;101313.84;5028110;28;20183;-70
2021/08/11 00:07:09;;;;;;;26.00;11.53;;;;;;;13.37;100.00;101311.66;5027615;28;20029;-70
2021/08/11 00:09:35;;;;;;;24.33;12.97;;;;;;;13.40;100.00;101311.31;5028350;28;20056;-70
2021/08/11 00:12:00;;;;;;;23.33;12.47;;;;;;;13.42;100.00;101312.00;5028879;28;20041;-70
2021/08/11 00:14:26;;;;;;;19.83;11.60;;;;;;;13.41;100.00;101314.84;5028987;28;20030;-70
2021/08/11 00:16:52;;;;;;;27.38;12.85;;;;;;;13.40;100.00;101315.84;5027649;28;20041;-70
2021/08/11 00:19:17;;;;;;;19.95;11.73;;;;;;;13.33;100.00;101313.00;5028899;28;20164;-70
2021/08/11 00:21:43;;;;;;;14.37;9.53;;;;;;;13.41;100.00;101321.03;5027905;28;20122;-70
2021/08/11 00:24:08;;;;;;;22.87;14.03;;;;;;;13.35;100.00;101315.53;5028475;28;20141;-70
2021/08/11 00:26:33;;;;;;;19.60;11.83;;;;;;;13.31;100.00;101315.00;5028663;28;20088;-70
2021/08/11 00:28:59;;;;;;;24.70;10.83;;;;;;;13.26;100.00;101320.00;5027618;28;20029;-70
2021/08/11 00:31:24;;;;;;;25.87;12.23;;;;;;;13.31;100.00;101320.38;5011495;28;20136;-70
2021/08/11 00:33:50;;;;;;;26.93;13.23;;;;;;;13.31;100.00;101320.38;5028416;28;20044;-70
2021/08/11 00:36:15;;;;;;;20.80;11.87;;;;;;;13.23;100.00;101317.66;5026565;28;20462;-70
2021/08/11 00:38:41;;;;;;;20.38;12.32;;;;;;;13.30;100.00;101324.91;5027423;28;20045;-70
2021/08/11 00:41:10;;;;;;;27.27;12.27;;;;;;;13.29;100.00;101328.56;5027656;28;20048;-70
2021/08/11 00:43:36;;;;;;;28.10;14.93;;;;;;;13.26;100.00;101328.03;5010902;28;20029;-70
2021/08/11 00:46:07;;;;;;;23.27;13.70;;;;;;;13.24;100.00;101332.72;5026672;28;20162;-70
2021/08/11 00:48:32;;;;;;;22.40;12.43;;;;;;;13.28;100.00;101331.44;5011391;28;20483;-70
2021/08/11 00:50:58;;;;;;;31.58;14.00;;;;;;;13.31;100.00;101325.72;5010945;28;20041;-70
2021/08/11 00:53:27;;;;;;;30.88;14.88;;;;;;;13.26;100.00;101333.41;5011340;28;20025;-70
2021/08/11 00:55:56;;;;;;;28.83;15.30;;;;;;;13.23;100.00;101331.91;5010531;28;20033;-70
2021/08/11 00:58:22;;;;;;;25.58;13.50;;;;;;;13.25;100.00;101329.03;5010861;28;20025;-70
2021/08/11 01:00:50;;;;;;;27.48;13.93;;;;;;;13.27;100.00;101329.72;5027240;28;20037;-70
2021/08/11 01:03:20;;;;;;;30.42;15.30;;;;;;;13.32;100.00;101324.72;5027198;28;20034;-70
2021/08/11 01:05:47;;;;;;;30.65;15.52;;;;;;;13.32;100.00;101331.94;5026309;28;20040;-70
2021/08/11 01:08:13;;;;;;;27.77;14.90;;;;;;;13.29;100.00;101331.25;5027113;28;20030;-70
2021/08/11 01:10:40;;;;;;;27.98;15.65;;;;;;;13.26;100.00;101333.41;5027058;28;20025;-71
2021/08/11 01:13:07;;;;;;;25.83;15.00;;;;;;;13.21;100.00;101335.75;5027024;28;20478;-70
2021/08/11 01:15:33;;;;;;;25.52;15.35;;;;;;;13.27;100.00;101340.44;5011090;28;20068;-70
2021/08/11 01:17:58;;;;;;;26.50;16.57;;;;;;;13.19;100.00;101337.75;5010284;28;20112;-70
2021/08/11 01:20:24;;;;;;;31.67;17.20;;;;;;;13.17;100.00;101337.09;5010810;28;20806;-70
2021/08/11 01:22:58;;;;;;;33.65;18.70;;;;;;;13.16;100.00;101332.69;5026860;28;20029;-70
2021/08/11 01:25:34;;;;;;;33.40;16.27;;;;;;;13.13;100.00;101333.03;5026908;28;20116;-70
2021/08/11 01:28:18;;;;;;;31.90;18.77;;;;;;;13.04;100.00;101335.72;5026603;28;20056;-70
2021/08/11 01:31:07;;;;;;;28.73;16.17;;;;;;;12.99;100.00;101332.66;5028115;28;20060;-70
2021/08/11 01:33:45;;;;;;;32.75;18.60;;;;;;;13.04;100.00;101335.72;5026641;28;20053;-70
2021/08/11 01:36:16;;;;;;;33.20;18.83;;;;;;;13.06;100.00;101349.81;5009080;28;20033;-70
2021/08/11 01:38:49;;;;;;;40.58;20.60;;;;;;;13.07;100.00;101350.63;5027707;28;20025;-70
2021/08/11 01:41:15;;;;;;;40.70;20.80;;;;;;;13.13;100.00;101349.97;5010611;28;20048;-70
2021/08/11 01:43:44;;;;;;;39.20;22.30;;;;;;;13.13;100.00;101352.66;5026712;28;20029;-70
2021/08/11 01:46:12;;;;;;;39.15;20.52;;;;;;;13.09;100.00;101349.47;5025978;28;20040;-70
2021/08/11 01:48:39;;;;;;;39.70;21.08;;;;;;;13.12;100.00;101350.97;5010268;28;20061;-70
2021/08/11 01:51:06;;;;;;;43.70;21.90;;;;;;;13.10;100.00;101347.63;5010555;28;20037;-70
2021/08/11 01:53:32;;;;;;;43.58;19.50;;;;;;;13.06;100.00;101344.44;5026767;28;20032;-70
2021/08/11 01:56:02;;;;;;;41.30;20.83;;;;;;;13.05;100.00;101347.28;5010381;28;20622;-70
2021/08/11 01:58:35;;;;;;;45.35;23.70;;;;;;;13.00;100.00;101350.44;5026722;28;20132;-70
2021/08/11 02:01:04;;;;;;;;;;;;;;;13.00;100.00;101350.44;5010817;28;20026;-70
2021/08/11 02:03:30;;;;;;;46.97;23.30;;;;;;;12.93;100.00;101352.09;5026863;28;20044;-70
2021/08/11 02:05:57;;;;;;;46.53;26.10;;;;;;;12.93;100.00;101346.75;5026087;28;20359;-70
2021/08/11 02:08:24;;;;;;;54.28;25.45;;;;;;;12.90;100.00;101349.75;5026776;28;20044;-70
2021/08/11 02:10:55;;;;;;;60.63;28.10;;;;;;;12.92;100.00;101354.94;5027217;28;20113;-70
2021/08/11 02:13:21;;;;;;;54.38;28.55;;;;;;;12.87;100.00;101356.25;5026589;28;20029;-70
2021/08/11 02:15:48;;;;;;;59.73;29.03;;;;;;;12.94;100.00;101359.13;5026231;28;20715;-70
2021/08/11 02:18:14;;;;;;;57.00;29.40;;;;;;;12.93;100.00;101360.16;5029031;28;20338;-70
2021/08/11 02:20:40;;;;;;;50.65;30.33;;;;;;;12.97;100.00;101356.16;5013917;28;20029;-70
2021/08/11 02:23:06;;;;;;;58.13;28.35;;;;;;;12.93;100.00;101349.44;5013469;28;20446;-70
2021/08/11 02:25:33;;;;;;;54.10;28.17;;;;;;;12.81;100.00;101350.72;5013600;28;20048;-70
2021/08/11 02:28:10;;;;;;;48.53;26.83;;;;;;;12.82;100.00;101350.56;5029666;28;20033;-70
2021/08/11 02:30:41;;;;;;;52.40;28.27;;;;;;;12.87;100.00;101352.75;5013755;28;20075;-70
2021/08/11 02:33:28;;;;;;;68.70;31.60;;;;;;;12.89;100.00;101356.94;5029777;28;20374;-70
2021/08/11 02:36:00;;;;;;;62.63;31.85;;;;;;;12.84;100.00;101350.41;5029367;28;20071;-70
2021/08/11 02:38:33;;;;;;;61.03;30.52;;;;;;;12.84;100.00;101351.22;5029938;28;20079;-70
2021/08/11 02:41:36;;;;;;;63.75;31.45;;;;;;;12.85;100.00;101344.03;5030009;28;20029;-70
2021/08/11 02:44:16;;;;;;;57.50;30.33;;;;;;;12.93;100.00;101354.78;5003457;28;20148;-70
2021/08/11 02:46:43;;;;;;;60.15;33.08;;;;;;;12.89;100.00;101353.44;5029320;28;20459;-70
2021/08/11 02:49:13;;;;;;;66.72;33.53;;;;;;;12.91;100.00;101359.47;5029442;28;20042;-70
2021/08/11 02:51:40;;;;;;;67.18;31.83;;;;;;;12.88;100.00;101357.13;5029649;28;20877;-70
2021/08/11 02:54:11;;;;;;;58.72;31.02;;;;;;;12.87;100.00;101358.94;5029287;28;20052;-70
2021/08/11 02:56:39;;;;;;;56.38;30.63;;;;;;;12.92;100.00;101353.09;5029456;28;20034;-70
2021/08/11 02:59:05;;;;;;;64.95;34.15;;;;;;;12.88;100.00;101357.13;5029308;28;20532;-70
2021/08/11 03:01:34;;;;;;;61.67;31.15;;;;;;;12.93;100.00;101362.81;5029597;28;20029;-70
2021/08/11 03:04:02;;;;;;;61.80;31.80;;;;;;;12.97;100.00;101360.66;5029224;28;20105;-70
2021/08/11 03:06:28;;;;;;;59.28;30.33;;;;;;;12.93;100.00;101367.34;5029139;28;20573;-70
2021/08/11 03:08:55;;;;;;;57.53;30.63;;;;;;;12.91;100.00;101362.16;5029167;28;20033;-70
2021/08/11 03:11:21;;;;;;;69.78;34.90;;;;;;;12.94;100.00;101369.03;5012739;28;20022;-70
2021/08/11 03:13:48;;;;;;;59.97;33.20;;;;;;;12.93;100.00;101367.34;5029341;28;20044;-70
2021/08/11 03:16:14;;;;;;;65.57;31.63;;;;;;;12.96;100.00;101365.16;5028596;28;20034;-70
2021/08/11 03:18:39;;;;;;;59.47;30.60;;;;;;;12.97;100.00;101366.88;5029234;28;20580;-70
2021/08/11 03:21:06;;;;;;;57.03;32.33;;;;;;;13.00;100.00;101371.06;5028702;28;20041;-70
2021/08/11 03:23:32;;;;;;;58.97;31.20;;;;;;;13.00;100.00;101371.91;5029079;28;20460;-70
2021/08/11 03:25:58;;;;;;;58.30;31.20;;;;;;;12.99;100.00;101370.19;5028341;28;20045;-70
2021/08/11 03:28:23;;;;;;;58.03;31.42;;;;;;;12.92;100.00;101363.81;5028722;28;20069;-70
2021/08/11 03:30:49;;;;;;;68.53;33.83;;;;;;;12.99;100.00;101374.72;5029785;28;20033;-70
2021/08/11 03:33:14;;;;;;;65.03;33.63;;;;;;;12.99;100.00;101367.50;5028565;28;20175;-70
2021/08/11 03:35:41;;;;;;;61.60;32.13;;;;;;;13.00;100.00;101377.25;5028793;28;20041;-70
2021/08/11 03:38:06;;;;;;;65.82;32.03;;;;;;;12.99;100.00;101369.38;5011909;28;20439;-70
2021/08/11 03:40:32;;;;;;;63.50;32.70;;;;;;;13.02;100.00;101369.91;5012423;28;20067;-70
2021/08/11 03:42:57;;;;;;;61.00;32.28;;;;;;;13.03;100.00;101371.56;5029457;28;20099;-70
2021/08/11 03:45:23;;;;;;;65.70;32.45;;;;;;;13.07;100.00;101372.91;5028696;28;20521;-70
2021/08/11 03:47:48;;;;;;;70.57;35.47;;;;;;;13.08;100.00;101368.38;5027934;28;20091;-70
2021/08/11 03:50:15;;;;;;;77.17;36.20;;;;;;;13.15;100.00;101380.13;5028825;28;20550;-70
2021/08/11 03:52:44;;;;;;;65.88;35.05;;;;;;;13.07;100.00;101370.22;5028656;28;20029;-70
2021/08/11 03:55:12;;;;;;;75.13;36.53;;;;;;;13.07;100.00;101380.97;5012097;28;20045;-70
2021/08/11 03:57:38;;;;;;;71.35;35.03;;;;;;;13.06;100.00;101381.97;5028191;28;20021;-70
2021/08/11 04:00:05;;;;;;;68.63;37.38;;;;;;;13.07;100.00;101377.44;5026926;28;20473;-70
2021/08/11 04:02:40;;;;;;;81.40;40.50;;;;;;;13.08;100.00;101382.63;5027829;28;20041;-70
2021/08/11 04:05:07;;;;;;;80.43;38.53;;;;;;;13.09;100.00;101386.16;5027560;28;20103;-70
2021/08/11 04:07:32;;;;;;;83.65;37.95;;;;;;;13.09;100.00;101387.00;5027537;28;20026;-70
2021/08/11 04:09:58;;;;;;;77.25;38.53;;;;;;;13.09;100.00;101381.63;5027959;28;20048;-70
2021/08/11 04:12:23;;;;;;;79.10;38.70;;;;;;;13.07;100.00;101378.28;5027883;28;20045;-70
2021/08/11 04:14:48;;;;;;;74.80;37.00;;;;;;;13.09;100.00;101387.00;5029110;28;20036;-70
2021/08/11 04:17:14;;;;;;;84.20;40.57;;;;;;;13.08;100.00;101384.47;5028224;28;20554;-70
2021/08/11 04:19:39;;;;;;;75.10;38.63;;;;;;;13.07;100.00;101382.81;5028339;28;20094;-70
2021/08/11 04:22:04;;;;;;;82.97;39.53;;;;;;;13.14;100.00;101388.34;5029047;28;20025;-70
2021/08/11 04:24:30;;;;;;;90.40;40.67;;;;;;;13.13;100.00;101387.50;5028550;28;20048;-71
2021/08/11 04:26:55;;;;;;;78.83;38.83;;;;;;;13.16;100.00;101383.66;5027727;28;20113;-70
2021/08/11 04:29:21;;;;;;;96.07;40.60;;;;;;;13.20;100.00;101382.31;5028949;28;20453;-70
2021/08/11 04:31:46;;;;;;;93.47;39.28;;;;;;;13.17;100.00;101388.03;5028807;28;20040;-70
2021/08/11 04:34:12;;;;;;;103.30;43.13;;;;;;;13.21;100.00;101389.38;5028820;28;20071;-70
2021/08/11 04:36:37;;;;;;;83.03;39.13;;;;;;;13.27;100.00;101386.03;5028799;28;20040;-70
2021/08/11 04:39:02;;;;;;;85.23;40.27;;;;;;;13.27;100.00;101386.91;5029066;28;20068;-70
2021/08/11 04:41:28;;;;;;;107.17;42.90;;;;;;;13.21;100.00;101389.38;5027778;28;20045;-70
2021/08/11 04:43:53;;;;;;;90.73;41.63;;;;;;;13.24;100.00;101394.41;5029163;28;20039;-70
2021/08/11 04:46:18;;;;;;;95.93;38.80;;;;;;;13.21;100.00;101400.09;5028203;28;20554;-70
2021/08/11 04:48:44;;;;;;;83.27;39.90;;;;;;;13.17;100.00;101404.09;5028756;28;20053;-70
2021/08/11 04:51:09;;;;;;;88.03;38.17;;;;;;;13.17;100.00;101399.56;5028173;28;20044;-70
2021/08/11 04:53:35;;;;;;;75.10;35.30;;;;;;;13.28;100.00;101404.66;5028523;28;20053;-70
2021/08/11 04:56:00;;;;;;;98.88;41.13;;;;;;;13.21;100.00;101400.94;5028412;28;20049;-70
2021/08/11 04:58:25;;;;;;;86.33;37.97;;;;;;;13.29;100.00;101402.81;5027868;28;20104;-70
2021/08/11 05:00:51;;;;;;;90.13;38.47;;;;;;;13.27;100.00;101408.38;5028499;28;20451;-70
2021/08/11 05:03:16;;;;;;;86.43;38.57;;;;;;;13.33;100.00;101414.91;5028016;28;20340;-70
2021/08/11 05:05:43;;;;;;;72.30;33.20;;;;;;;13.40;100.00;101415.09;5027658;28;20021;-70
2021/08/11 05:08:08;;;;;;;67.03;32.00;;;;;;;13.36;100.00;101411.06;5027390;28;20451;-70
2021/08/11 05:10:34;;;;;;;58.65;32.03;;;;;;;13.52;100.00;101419.97;5027569;28;20037;-70
2021/08/11 05:12:59;;;;;;;77.00;35.03;;;;;;;13.50;100.00;101416.59;5026519;28;20032;-70
2021/08/11 05:15:24;;;;;;;66.73;32.07;;;;;;;13.56;100.00;101406.25;5026375;28;20037;-70
2021/08/11 05:17:50;;;;;;;60.30;31.70;;;;;;;13.56;100.00;101416.97;5027907;28;20037;-70
2021/08/11 05:20:16;;;;;;;59.77;31.70;;;;;;;13.68;100.00;101421.00;5027559;28;20032;-70
2021/08/11 05:22:42;;;;;;;64.43;30.67;;;;;;;13.62;100.00;101419.81;5027558;28;20056;-70
2021/08/11 05:25:07;;;;;;;62.45;30.85;;;;;;;13.71;100.00;101418.81;5027096;28;20180;-70
2021/08/11 05:27:32;;;;;;;51.80;27.13;;;;;;;13.72;100.00;101419.66;5027432;28;20447;-70
2021/08/11 05:29:58;;;;;;;53.67;29.67;;;;;;;13.71;100.00;101418.81;5027892;28;20327;-70
2021/08/11 05:32:23;;;;;;;55.67;26.17;;;;;;;13.61;100.00;101415.44;5027671;28;20532;-70
2021/08/11 05:34:49;;;;;;;51.93;26.47;;;;;;;13.75;100.00;101419.31;5027562;28;20123;-70
2021/08/11 05:37:17;;;;;;;47.47;27.02;;;;;;;14.03;100.00;101425.19;5027819;28;20109;-70
2021/08/11 05:39:42;;;;;;;36.13;22.10;;;;;;;13.99;100.00;101423.84;5026760;28;20491;-70
2021/08/11 05:42:08;;;;;;;35.67;23.07;;;;;;;14.04;100.00;101426.84;5025835;28;20034;-70
2021/08/11 05:44:33;;;;;;;39.63;24.60;;;;;;;14.11;100.00;101427.88;5026381;28;20836;-70
2021/08/11 05:47:01;;;;;;;38.75;23.58;;;;;;;14.04;100.00;101429.53;5025952;28;20037;-70
2021/08/11 05:49:28;;;;;;;40.00;22.05;;;;;;;14.13;100.00;101433.06;5026466;28;20055;-70
2021/08/11 05:51:53;;;;;;;35.38;20.80;;;;;;;14.36;100.00;101436.72;5026315;28;20029;-70
2021/08/11 05:54:18;;;;;;;31.10;19.87;;;;;;;14.67;100.00;101430.66;5030640;28;20919;-70
2021/08/11 05:56:44;;;;;;;32.83;21.13;;;;;;;14.60;100.00;101434.19;5031431;28;20133;-70
2021/08/11 05:59:09;;;;;;;30.00;19.13;;;;;;;14.55;100.00;101442.78;5031322;28;20069;-71
2021/08/11 06:01:34;;;;;;;36.40;20.57;;;;;;;14.40;100.00;101444.44;5031998;28;20033;-70
2021/08/11 06:04:00;;;;;;;29.60;19.20;;;;;;;14.44;100.00;101445.78;5031234;28;20037;-70
2021/08/11 06:06:27;;;;;;;34.97;21.35;;;;;;;14.36;100.00;101450.16;5033137;28;20029;-70
2021/08/11 06:08:53;;;;;;;34.45;20.35;;;;;;;14.51;100.00;101455.66;5030261;28;20087;-70
2021/08/11 06:11:18;;;;;;;;;;;;;;;14.66;100.00;101450.47;5031925;28;20105;-70
2021/08/11 06:13:44;;;;;;;;;;;;;;;14.72;100.00;101460.53;5030357;28;20012;-70
2021/08/11 06:16:09;;;;;;;32.67;20.47;;;;;;;14.78;100.00;101451.78;5027535;28;19916;-70
2021/08/11 06:18:34;;;;;;;34.90;20.67;;;;;;;15.04;99.83;101460.59;5029198;28;20030;-71
2021/08/11 06:21:00;;;;;;;27.37;17.70;;;;;;;15.09;99.25;101456.38;5028990;28;20486;-70
2021/08/11 06:23:25;;;;;;;31.13;20.17;;;;;;;15.10;98.58;101460.75;5027610;28;20087;-70
2021/08/11 06:25:51;;;;;;;33.60;19.83;;;;;;;15.31;97.90;101459.28;5028533;28;20437;-70
2021/08/11 06:28:16;;;;;;;26.70;19.03;;;;;;;15.24;96.67;101466.38;5028317;28;20037;-70
2021/08/11 06:30:41;;;;;;;28.07;18.50;;;;;;;15.29;95.86;101469.38;5029001;28;20029;-71
2021/08/11 06:33:07;;;;;;;32.37;18.70;;;;;;;15.44;95.95;101464.09;5029209;28;20351;-71
2021/08/11 06:35:32;;;;;;;29.83;17.67;;;;;;;15.51;95.12;101471.28;5029210;28;20501;-71
2021/08/11 06:37:58;;;;;;;24.80;16.83;;;;;;;15.46;95.26;101470.97;5029742;28;20057;-71
2021/08/11 06:40:23;;;;;;;25.47;17.53;;;;;;;15.54;95.15;101465.53;5030752;28;20431;-71
2021/08/11 06:42:49;;;;;;;27.77;16.60;;;;;;;16.08;94.91;101471.94;5030050;28;20033;-71
2021/08/11 06:45:18;;;;;;;24.83;15.95;;;;;;;16.38;91.36;101473.66;5028947;28;20034;-70
2021/08/11 06:47:44;;;;;;;29.02;16.63;;;;;;;17.42;86.77;101480.94;5028011;28;20822;-71
2021/08/11 06:50:12;;;;;;;20.75;13.93;;;;;;;17.79;84.28;101476.34;5027340;28;20037;-70
2021/08/11 06:52:38;;;;;;;22.70;14.30;;;;;;;18.22;81.52;101474.50;5027600;28;20059;-71
2021/08/11 06:55:15;;;;;;;19.20;13.70;;;;;;;18.35;78.76;101481.88;5027979;28;20330;-70
2021/08/11 06:57:44;;;;;;;18.38;12.50;;;;;;;18.43;79.30;101484.44;5027343;28;20029;-71
2021/08/11 07:00:10;;;;;;;15.77;11.75;;;;;;;18.92;79.80;101482.72;5028942;28;20565;-71
2021/08/11 07:02:36;;;;;;;15.68;11.20;;;;;;;19.31;76.18;101487.47;5027720;28;20463;-71
2021/08/11 07:05:03;;;;;;;16.30;12.50;;;;;;;19.25;75.41;101492.88;5028127;28;20123;-71
2021/08/11 07:07:29;;;;;;;;;;;;;;;18.83;77.19;101490.16;5028594;28;20029;-70
2021/08/11 07:09:55;;;;;;;17.17;11.68;;;;;;;18.51;78.31;101497.81;5027907;28;20035;-70
2021/08/11 07:12:20;;;;;;;17.37;12.97;;;;;;;17.74;80.77;101501.22;5027642;28;20044;-70
2021/08/11 07:14:47;;;;;;;17.10;13.27;;;;;;;17.78;80.92;101490.91;5028822;28;20280;-70
2021/08/11 07:17:12;;;;;;;17.52;11.57;;;;;;;17.61;81.79;101495.72;5029372;28;20041;-71
2021/08/11 07:19:39;;;;;;;19.73;13.17;;;;;;;17.34;82.42;101491.84;5028431;28;20041;-71
2021/08/11 07:22:05;;;;;;;21.88;14.32;;;;;;;16.78;85.87;101495.84;5029505;28;20029;-70
2021/08/11 07:24:30;;;;;;;18.00;12.07;;;;;;;16.80;88.21;101493.84;5012015;28;20454;-70
2021/08/11 07:26:55;;;;;;;20.13;12.20;;;;;;;17.58;84.65;101496.91;5028023;28;20129;-70
2021/08/11 07:29:21;;;;;;;16.00;12.07;;;;;;;16.96;84.68;101483.91;5029517;28;20037;-70
2021/08/11 07:31:46;;;;;;;16.03;12.30;;;;;;;17.18;85.90;101491.03;5028910;28;20048;-70
2021/08/11 07:34:11;;;;;;;19.20;13.37;;;;;;;17.24;83.50;101498.38;5029023;28;20041;-70
2021/08/11 07:36:37;;;;;;;16.77;10.17;;;;;;;18.53;81.43;101505.72;5027603;28;20549;-70
2021/08/11 07:39:02;;;;;;;18.43;12.20;;;;;;;18.38;78.07;101499.56;5029273;28;20454;-70
2021/08/11 07:41:27;;;;;;;17.97;11.47;;;;;;;18.45;79.23;101508.56;5028787;28;20132;-70
2021/08/11 07:43:53;;;;;;;17.87;11.63;;;;;;;18.42;79.38;101508.97;5029096;28;20025;-70
2021/08/11 07:46:18;;;;;;;14.67;10.70;;;;;;;18.39;78.18;101512.91;5028621;28;20037;-70
2021/08/11 07:48:43;;;;;;;15.43;10.20;;;;;;;18.77;76.41;101508.00;5044651;28;20041;-70
2021/08/11 07:51:09;;;;;;;12.13;8.50;;;;;;;19.57;76.00;101513.81;5035414;28;20041;-70
2021/08/11 07:53:34;;;;;;;12.37;9.77;;;;;;;19.63;75.20;101514.03;5027780;28;20029;-70
2021/08/11 07:56:00;;;;;;;14.03;9.93;;;;;;;19.97;75.47;101518.50;5027193;28;20669;-70
2021/08/11 07:58:25;;;;;;;13.32;9.52;;;;;;;19.88;72.08;101525.16;5028535;28;20116;-70
2021/08/11 08:00:52;;;;;;;13.03;8.23;;;;;;;20.14;72.02;101525.22;5012158;28;20025;-70
2021/08/11 08:03:17;;;;;;;10.80;8.98;;;;;;;20.26;70.83;101532.75;5028911;28;20037;-70
2021/08/11 08:05:43;;;;;;;13.85;9.13;;;;;;;19.71;72.19;101538.25;5029075;28;20060;-70
2021/08/11 08:08:08;;;;;;;12.07;8.27;;;;;;;19.71;72.88;101525.53;5028959;28;20033;-71
2021/08/11 08:10:34;;;;;;;11.50;7.23;;;;;;;20.28;71.82;101536.09;5031331;28;20101;-71
2021/08/11 08:12:59;;;;;;;16.52;8.32;;;;;;;20.60;71.70;101529.00;5038040;28;20060;-70
2021/08/11 08:15:25;;;;;;;11.77;8.93;;;;;;;20.24;70.83;101539.19;5027223;28;20044;-70
2021/08/11 08:17:51;;;;;;;10.32;8.07;;;;;;;20.43;70.21;101532.09;5028913;28;20203;-71
2021/08/11 08:20:17;;;;;;;12.48;8.68;;;;;;;20.98;69.30;101536.47;5027755;28;20037;-70
2021/08/11 08:22:44;;;;;;;12.50;7.63;;;;;;;21.26;66.90;101536.19;5029030;28;20355;-71
2021/08/11 08:25:10;;;;;;;11.27;7.85;;;;;;;21.27;67.73;101535.97;5027480;28;20037;-71
2021/08/11 08:27:37;;;;;;;13.95;8.48;;;;;;;21.26;67.92;101536.19;5027529;28;20121;-71
2021/08/11 08:30:03;;;;;;;12.02;8.75;;;;;;;21.47;67.73;101535.94;5026813;28;20155;-70
2021/08/11 08:32:30;;;;;;;14.05;7.90;;;;;;;21.14;68.21;101535.16;5028503;28;20144;-70
2021/08/11 08:34:56;;;;;;;12.13;8.50;;;;;;;20.62;70.07;101535.88;5028059;28;20046;-71
2021/08/11 08:37:33;;;;;;;11.13;7.60;;;;;;;21.40;68.08;101539.69;5028300;28;20148;-70
2021/08/11 08:40:10;;;;;;;10.20;7.38;;;;;;;21.13;64.95;101536.22;5026477;28;20673;-71
2021/08/11 08:42:37;;;;;;;11.18;5.75;;;;;;;21.48;67.22;101536.75;5027818;28;20116;-70
2021/08/11 08:45:04;;;;;;;10.95;6.43;;;;;;;21.70;64.62;101534.53;5010822;28;20029;-71
2021/08/11 08:47:31;;;;;;;10.80;7.68;;;;;;;20.13;69.07;101528.13;5027906;28;20455;-70
2021/08/11 08:49:56;;;;;;;8.50;6.38;;;;;;;21.26;67.03;101541.63;5027773;28;20045;-70
2021/08/11 08:52:22;;;;;;;11.05;6.07;;;;;;;21.86;65.82;101535.91;5027058;28;20029;-71
2021/08/11 08:54:48;;;;;;;10.77;5.80;;;;;;;22.62;60.91;101543.13;5028357;28;20036;-71
2021/08/11 08:57:17;;;;;;;10.75;6.53;;;;;;;22.62;59.78;101540.41;5026837;28;20574;-71
2021/08/11 08:59:44;;;;;;;8.70;5.72;;;;;;;22.76;62.98;101555.56;5028514;28;20037;-71
2021/08/11 09:02:11;;;;;;;10.90;6.28;;;;;;;22.44;60.28;101556.69;5027553;28;20021;-70
2021/08/11 09:04:37;;;;;;;8.70;5.68;;;;;;;23.22;61.60;101552.59;5026761;28;20045;-71
2021/08/11 09:07:06;;;;;;;;;;;;;;;23.33;60.60;101551.84;5028065;28;20021;-71
2021/08/11 09:09:36;;;;;;;7.70;5.38;;;;;;;24.09;55.99;101552.31;5027516;28;19917;-71
2021/08/11 09:12:17;;;;;;;8.00;5.65;;;;;;;22.43;60.47;101546.84;5026427;28;20504;-71
2021/08/11 09:14:46;;;;;;;8.07;5.80;;;;;;;21.80;60.48;101543.06;5026741;28;20451;-71
2021/08/11 09:17:30;;;;;;;12.45;5.18;;;;;;;23.35;57.45;101547.00;5025751;28;20037;-71
2021/08/11 09:19:56;;;;;;;8.50;5.13;;;;;;;23.80;56.18;101542.03;5023752;28;20478;-71
2021/08/11 09:22:21;;;;;;;6.47;5.70;;;;;;;23.27;56.41;101545.44;5023713;28;20040;-71
2021/08/11 09:24:46;;;;;;;8.60;5.10;;;;;;;22.83;57.34;101543.75;5023164;28;20954;-71
2021/08/11 09:27:22;;;;;;;12.90;5.83;;;;;;;23.81;57.04;101540.13;5025201;28;20048;-70
2021/08/11 09:30:09;;;;;;;10.23;4.97;;;;;;;22.88;56.73;101541.22;5027896;28;20044;-71
2021/08/11 09:33:00;;;;;;;7.35;5.00;;;;;;;24.13;54.24;101542.59;5029664;28;20037;-70
2021/08/11 09:35:33;;;;;;;8.35;4.15;;;;;;;25.35;51.32;101547.41;5030119;28;20454;-70
2021/08/11 09:38:01;;;;;;;9.00;4.80;;;;;;;23.53;55.06;101540.69;5031339;28;20033;-70
2021/08/11 09:40:32;;;;;;;10.13;4.97;;;;;;;22.82;57.35;101547.56;5030200;28;20022;-70
2021/08/11 09:43:08;;;;;;;8.48;5.32;;;;;;;21.93;58.57;101545.69;5030448;28;20056;-70
2021/08/11 09:45:45;;;;;;;11.85;5.22;;;;;;;21.48;61.70;101545.72;5030914;28;20130;-70
2021/08/11 09:48:12;;;;;;;9.30;4.78;;;;;;;21.10;64.47;101536.66;5031177;28;20047;-70
2021/08/11 09:50:53;;;;;;;9.10;5.28;;;;;;;20.78;68.04;101547.34;5031281;28;20022;-69
2021/08/11 09:53:26;;;;;;;8.65;5.13;;;;;;;20.02;69.32;101559.41;5030994;28;20616;-70
2021/08/11 09:56:04;;;;;;;12.48;5.78;;;;;;;19.36;73.54;101563.53;5029728;28;20065;-70
2021/08/11 09:59:02;;;;;;;13.25;6.72;;;;;;;19.42;76.65;101564.56;5030941;28;20045;-69
2021/08/11 10:01:28;;;;;;;13.13;6.40;;;;;;;19.04;76.44;101567.72;5030122;28;20481;-70
2021/08/11 10:04:01;;;;;;;9.32;7.05;;;;;;;18.87;79.64;101566.31;5029821;28;20033;-70
2021/08/11 10:06:35;;;;;;;9.00;6.65;;;;;;;18.59;81.30;101561.75;5031040;28;20029;-70
2021/08/11 10:09:24;;;;;;;12.60;6.90;;;;;;;18.68;81.35;101565.13;5029808;28;20037;-70
2021/08/11 10:12:03;;;;;;;10.25;6.45;;;;;;;18.70;80.91;101560.34;5030044;28;20045;-69
2021/08/11 10:14:34;;;;;;;11.85;7.45;;;;;;;18.64;83.38;101561.16;5030404;28;20112;-69
2021/08/11 10:17:00;;;;;;;13.85;7.68;;;;;;;18.46;84.85;101565.16;5029786;28;20166;-69
2021/08/11 10:19:31;;;;;;;12.45;7.00;;;;;;;18.49;83.62;101558.50;5029638;28;20025;-69
2021/08/11 10:21:57;;;;;;;14.77;7.80;;;;;;;18.64;82.58;101561.16;5029686;28;20048;-69
2021/08/11 10:24:24;;;;;;;10.13;6.78;;;;;;;18.53;81.70;101551.69;5029319;28;20033;-69
2021/08/11 10:26:52;;;;;;;10.70;7.10;;;;;;;19.12;82.21;101558.59;5030618;28;20423;-69
2021/08/11 10:29:18;;;;;;;10.05;6.68;;;;;;;20.78;75.73;101563.63;5029399;28;20036;-69
2021/08/11 10:31:44;;;;;;;20.15;6.93;;;;;;;21.85;68.24;101556.00;5013217;28;20135;-69
2021/08/11 10:34:15;;;;;;;12.50;6.37;;;;;;;21.69;69.02;101560.88;5029217;28;20387;-69
2021/08/11 10:36:43;;;;;;;11.82;5.28;;;;;;;22.34;68.01;101566.16;5030263;28;20044;-69
2021/08/11 10:39:09;;;;;;;6.78;5.78;;;;;;;23.60;64.60;101563.25;5029661;28;20114;-70
2021/08/11 10:41:36;;;;;;;8.05;5.88;;;;;;;21.70;68.23;101564.44;5029049;28;20076;-70
2021/08/11 10:44:03;;;;;;;9.60;5.63;;;;;;;21.85;69.95;101570.44;5030292;28;20036;-70
2021/08/11 10:46:37;;;;;;;10.00;6.10;;;;;;;21.62;66.79;101559.25;5029221;28;20447;-70
2021/08/11 10:49:04;;;;;;;8.43;5.65;;;;;;;21.53;68.22;101564.09;5030405;28;20033;-70
2021/08/11 10:51:37;;;;;;;11.20;5.55;;;;;;;21.78;67.50;101566.91;5029074;28;20029;-70
2021/08/11 10:54:03;;;;;;;9.27;6.03;;;;;;;21.76;67.81;101565.47;5029913;28;20049;-70
2021/08/11 10:56:49;;;;;;;9.00;5.47;;;;;;;21.98;70.19;101557.81;5029724;28;20028;-70
2021/08/11 10:59:24;;;;;;;9.20;6.15;;;;;;;22.67;68.10;101566.97;5030210;28;20417;-70
2021/08/11 11:01:49;;;;;;;9.98;5.75;;;;;;;22.53;62.48;101571.69;5012227;28;20041;-70
2021/08/11 11:04:43;;;;;;;7.97;5.60;;;;;;;22.10;62.75;101556.91;5029779;28;20048;-70
2021/08/11 11:07:12;;;;;;;13.43;5.75;;;;;;;21.58;67.21;101558.84;5028359;28;20410;-70
2021/08/11 11:09:43;;;;;;;8.82;5.75;;;;;;;22.00;67.12;101550.28;5030133;28;20025;-70
2021/08/11 11:12:17;;;;;;;10.68;5.47;;;;;;;23.94;60.32;101555.47;5012245;28;20080;-70
2021/08/11 11:14:44;;;;;;;9.35;4.82;;;;;;;24.54;55.20;101549.13;5028773;28;20041;-70